map of VTZ home
VTZ - Airport
Location
City:  Vishakhapatnam, Andhra Pradesh, India
Name:Vishakhapatnam Airport
ICAO:VOVZ
IATA:VTZ

Details
Type:Airport (Aerodrome, Airfield)
Use:Public/Civil, Military
Latitude:1743'16"N (17.721167)
Longitude:8313'28"E (83.224483)
Elevation:15 ft (5 m)
Variation:0.54W (WMM2015 magnetic declination)
0.06 annual change
Runways:1
Longest:6000 × 150 ft (1829 × 45.5 m), paved

Time
Time Zone:UTC+5:30
Local Time:

Weather
METAR:VOVZ 210900Z 12010KT 5000 HZ NSC 28/17 Q1013 NOSIG
TAF:VOVZ 210500Z 2106/2212 VRB02KT 2000 HZ NSC
BECMG 2106/2108 13010KT 3500 HZ FU
BECMG 2117/2119 VRB02KT 3500 BR
TEMPO 2123/2203 0800 FG
BECMG 2204/2206 31006KT
BECMG 2207/2209 12010KT 3500 HZ FU NSC

Related Locations
Nearby:
Farthest:IPC: 11404 mi / 18353 km
Easter Island (Isla de Pascua, Rapa Nui) [Mataveri Intl], VS, CL

Find:

   beyond  
but within

Other Information
Maps:
NOTAMs:
Links:
Sources:

  
  • flag of India
  

Sectional Chart

Flight Planning
at skyvector.com

Satellite Image

Google Maps Satellite view

 

Copyright © 2004-2019 Karl L. Swartz. All rights reserved.
The Great Circle Mapper name and logo are trademarks of the Great Circle Mapper.
All other trademarks mentioned herein belong to their respective owners.
Please see credits for attibutions and further copyright information.

  Follow gcmap on Facebook Follow gcmap on Twitter Follow gcmap on Google+ GCmap on LinkedIn

hCard Microformat

Geo Microformat